sensor_id;sensor_type;location;lat;lon;timestamp;P1;durP1;ratioP1;P2;durP2;ratioP2
83707;SDS011;73692;49.562;11.144;2024-01-06T00:01:45;12.83;;;6.17;;
83707;SDS011;73692;49.562;11.144;2024-01-06T00:04:10;10.85;;;5.32;;
83707;SDS011;73692;49.562;11.144;2024-01-06T00:06:36;10.90;;;6.22;;
83707;SDS011;73692;49.562;11.144;2024-01-06T00:09:01;13.97;;;5.90;;
83707;SDS011;73692;49.562;11.144;2024-01-06T00:11:26;10.10;;;4.73;;
83707;SDS011;73692;49.562;11.144;2024-01-06T00:13:52;8.90;;;5.70;;
83707;SDS011;73692;49.562;11.144;2024-01-06T00:16:17;11.53;;;5.40;;
83707;SDS011;73692;49.562;11.144;2024-01-06T00:18:44;8.95;;;5.03;;
83707;SDS011;73692;49.562;11.144;2024-01-06T00:21:09;8.80;;;4.95;;
83707;SDS011;73692;49.562;11.144;2024-01-06T00:23:34;8.57;;;5.10;;
83707;SDS011;73692;49.562;11.144;2024-01-06T00:26:00;10.67;;;5.07;;
83707;SDS011;73692;49.562;11.144;2024-01-06T00:28:25;9.07;;;4.87;;
83707;SDS011;73692;49.562;11.144;2024-01-06T00:30:50;11.38;;;5.90;;
83707;SDS011;73692;49.562;11.144;2024-01-06T00:33:16;12.53;;;4.90;;
83707;SDS011;73692;49.562;11.144;2024-01-06T00:35:41;9.13;;;4.97;;
83707;SDS011;73692;49.562;11.144;2024-01-06T00:38:06;9.00;;;5.43;;
83707;SDS011;73692;49.562;11.144;2024-01-06T00:40:31;11.77;;;6.47;;
83707;SDS011;73692;49.562;11.144;2024-01-06T00:42:57;10.57;;;5.60;;
83707;SDS011;73692;49.562;11.144;2024-01-06T00:45:23;10.05;;;5.47;;
83707;SDS011;73692;49.562;11.144;2024-01-06T00:47:48;16.37;;;6.53;;
83707;SDS011;73692;49.562;11.144;2024-01-06T00:50:14;10.40;;;5.75;;
83707;SDS011;73692;49.562;11.144;2024-01-06T00:52:39;10.77;;;5.68;;
83707;SDS011;73692;49.562;11.144;2024-01-06T00:57:30;12.70;;;6.17;;
83707;SDS011;73692;49.562;11.144;2024-01-06T00:59:55;7.40;;;5.68;;
83707;SDS011;73692;49.562;11.144;2024-01-06T01:02:20;13.60;;;6.67;;
83707;SDS011;73692;49.562;11.144;2024-01-06T01:04:46;9.63;;;6.20;;
83707;SDS011;73692;49.562;11.144;2024-01-06T01:07:12;9.60;;;5.33;;
83707;SDS011;73692;49.562;11.144;2024-01-06T01:09:37;10.77;;;5.93;;
83707;SDS011;73692;49.562;11.144;2024-01-06T01:12:03;11.40;;;5.63;;
83707;SDS011;73692;49.562;11.144;2024-01-06T01:14:28;10.65;;;6.18;;
83707;SDS011;73692;49.562;11.144;2024-01-06T01:16:53;17.03;;;6.50;;
83707;SDS011;73692;49.562;11.144;2024-01-06T01:19:19;11.37;;;6.10;;
83707;SDS011;73692;49.562;11.144;2024-01-06T01:21:44;11.48;;;6.18;;
83707;SDS011;73692;49.562;11.144;2024-01-06T01:24:09;10.93;;;6.97;;
83707;SDS011;73692;49.562;11.144;2024-01-06T01:26:34;12.55;;;7.80;;
83707;SDS011;73692;49.562;11.144;2024-01-06T01:29:00;13.77;;;6.50;;
83707;SDS011;73692;49.562;11.144;2024-01-06T01:31:25;14.25;;;7.53;;
83707;SDS011;73692;49.562;11.144;2024-01-06T01:33:50;10.82;;;6.47;;
83707;SDS011;73692;49.562;11.144;2024-01-06T01:36:16;10.47;;;6.57;;
83707;SDS011;73692;49.562;11.144;2024-01-06T01:38:43;12.40;;;7.05;;
83707;SDS011;73692;49.562;11.144;2024-01-06T01:41:08;16.70;;;6.30;;
83707;SDS011;73692;49.562;11.144;2024-01-06T01:43:33;14.13;;;6.97;;
83707;SDS011;73692;49.562;11.144;2024-01-06T01:45:59;13.52;;;7.05;;
83707;SDS011;73692;49.562;11.144;2024-01-06T01:48:24;13.80;;;6.90;;
83707;SDS011;73692;49.562;11.144;2024-01-06T01:50:50;14.18;;;6.88;;
83707;SDS011;73692;49.562;11.144;2024-01-06T01:53:16;12.55;;;6.85;;
83707;SDS011;73692;49.562;11.144;2024-01-06T01:55:42;11.23;;;5.57;;
83707;SDS011;73692;49.562;11.144;2024-01-06T01:58:09;8.30;;;4.85;;
83707;SDS011;73692;49.562;11.144;2024-01-06T02:00:34;8.43;;;5.38;;
83707;SDS011;73692;49.562;11.144;2024-01-06T02:03:00;7.80;;;4.78;;
83707;SDS011;73692;49.562;11.144;2024-01-06T02:07:51;9.17;;;4.50;;
83707;SDS011;73692;49.562;11.144;2024-01-06T02:10:17;9.40;;;4.13;;
83707;SDS011;73692;49.562;11.144;2024-01-06T02:12:43;9.93;;;5.82;;
83707;SDS011;73692;49.562;11.144;2024-01-06T02:15:08;7.93;;;5.40;;
83707;SDS011;73692;49.562;11.144;2024-01-06T02:17:33;8.60;;;5.28;;
83707;SDS011;73692;49.562;11.144;2024-01-06T02:19:59;9.38;;;5.43;;
83707;SDS011;73692;49.562;11.144;2024-01-06T02:22:24;9.02;;;5.03;;
83707;SDS011;73692;49.562;11.144;2024-01-06T02:24:49;9.07;;;5.47;;
83707;SDS011;73692;49.562;11.144;2024-01-06T02:27:15;9.83;;;4.83;;
83707;SDS011;73692;49.562;11.144;2024-01-06T02:29:40;10.90;;;5.30;;
83707;SDS011;73692;49.562;11.144;2024-01-06T02:32:05;8.43;;;5.50;;
83707;SDS011;73692;49.562;11.144;2024-01-06T02:34:31;8.98;;;5.05;;
83707;SDS011;73692;49.562;11.144;2024-01-06T02:36:57;10.95;;;6.82;;
83707;SDS011;73692;49.562;11.144;2024-01-06T02:39:24;8.57;;;4.80;;
83707;SDS011;73692;49.562;11.144;2024-01-06T02:41:49;8.27;;;4.50;;
83707;SDS011;73692;49.562;11.144;2024-01-06T02:44:14;8.52;;;5.50;;
83707;SDS011;73692;49.562;11.144;2024-01-06T02:46:40;10.02;;;5.80;;
83707;SDS011;73692;49.562;11.144;2024-01-06T02:49:05;11.68;;;6.15;;
83707;SDS011;73692;49.562;11.144;2024-01-06T02:51:30;8.68;;;5.30;;
83707;SDS011;73692;49.562;11.144;2024-01-06T02:53:56;9.57;;;5.53;;
83707;SDS011;73692;49.562;11.144;2024-01-06T02:56:21;9.13;;;5.13;;
83707;SDS011;73692;49.562;11.144;2024-01-06T02:58:47;9.23;;;5.43;;
83707;SDS011;73692;49.562;11.144;2024-01-06T03:01:12;10.13;;;5.65;;
83707;SDS011;73692;49.562;11.144;2024-01-06T03:03:37;10.27;;;5.75;;
83707;SDS011;73692;49.562;11.144;2024-01-06T03:06:03;11.27;;;6.32;;
83707;SDS011;73692;49.562;11.144;2024-01-06T03:08:28;11.65;;;5.75;;
83707;SDS011;73692;49.562;11.144;2024-01-06T03:10:54;10.82;;;6.65;;
83707;SDS011;73692;49.562;11.144;2024-01-06T03:13:19;13.07;;;7.07;;
83707;SDS011;73692;49.562;11.144;2024-01-06T03:15:44;12.15;;;6.80;;
83707;SDS011;73692;49.562;11.144;2024-01-06T03:18:10;12.75;;;6.45;;
83707;SDS011;73692;49.562;11.144;2024-01-06T03:20:36;10.25;;;6.03;;
83707;SDS011;73692;49.562;11.144;2024-01-06T03:23:01;9.88;;;5.82;;
83707;SDS011;73692;49.562;11.144;2024-01-06T03:25:26;9.60;;;5.15;;
83707;SDS011;73692;49.562;11.144;2024-01-06T03:27:52;9.38;;;5.85;;
83707;SDS011;73692;49.562;11.144;2024-01-06T03:30:17;8.73;;;5.03;;
83707;SDS011;73692;49.562;11.144;2024-01-06T03:32:42;9.07;;;5.25;;
83707;SDS011;73692;49.562;11.144;2024-01-06T03:35:07;9.40;;;4.87;;
83707;SDS011;73692;49.562;11.144;2024-01-06T03:37:33;8.32;;;4.55;;
83707;SDS011;73692;49.562;11.144;2024-01-06T03:39:58;10.52;;;4.75;;
83707;SDS011;73692;49.562;11.144;2024-01-06T03:42:24;9.45;;;4.53;;
83707;SDS011;73692;49.562;11.144;2024-01-06T03:44:49;8.57;;;4.67;;
83707;SDS011;73692;49.562;11.144;2024-01-06T03:47:14;6.78;;;3.83;;
83707;SDS011;73692;49.562;11.144;2024-01-06T03:49:39;6.85;;;4.22;;
83707;SDS011;73692;49.562;11.144;2024-01-06T03:52:05;7.63;;;4.33;;
83707;SDS011;73692;49.562;11.144;2024-01-06T03:54:30;6.63;;;3.67;;
83707;SDS011;73692;49.562;11.144;2024-01-06T03:56:55;8.10;;;3.72;;
83707;SDS011;73692;49.562;11.144;2024-01-06T03:59:21;5.93;;;3.47;;
83707;SDS011;73692;49.562;11.144;2024-01-06T04:01:46;5.45;;;3.45;;
83707;SDS011;73692;49.562;11.144;2024-01-06T04:04:11;8.33;;;3.33;;
83707;SDS011;73692;49.562;11.144;2024-01-06T04:06:37;7.45;;;4.22;;
83707;SDS011;73692;49.562;11.144;2024-01-06T04:09:02;6.87;;;3.43;;
83707;SDS011;73692;49.562;11.144;2024-01-06T04:11:27;6.82;;;3.67;;
83707;SDS011;73692;49.562;11.144;2024-01-06T04:13:53;6.33;;;3.23;;
83707;SDS011;73692;49.562;11.144;2024-01-06T04:16:19;7.68;;;3.72;;
83707;SDS011;73692;49.562;11.144;2024-01-06T04:18:44;8.38;;;3.58;;
83707;SDS011;73692;49.562;11.144;2024-01-06T04:21:10;6.70;;;3.87;;
83707;SDS011;73692;49.562;11.144;2024-01-06T04:26:01;7.10;;;3.27;;
83707;SDS011;73692;49.562;11.144;2024-01-06T04:28:26;5.72;;;2.90;;
83707;SDS011;73692;49.562;11.144;2024-01-06T04:33:17;7.97;;;3.47;;
83707;SDS011;73692;49.562;11.144;2024-01-06T04:35:43;8.75;;;4.15;;
83707;SDS011;73692;49.562;11.144;2024-01-06T04:38:08;10.10;;;3.97;;
83707;SDS011;73692;49.562;11.144;2024-01-06T04:40:34;7.90;;;3.63;;
83707;SDS011;73692;49.562;11.144;2024-01-06T04:42:59;8.50;;;3.30;;
83707;SDS011;73692;49.562;11.144;2024-01-06T04:45:24;6.67;;;3.53;;
83707;SDS011;73692;49.562;11.144;2024-01-06T04:47:50;7.28;;;3.38;;
83707;SDS011;73692;49.562;11.144;2024-01-06T04:50:15;7.45;;;3.83;;
83707;SDS011;73692;49.562;11.144;2024-01-06T04:52:41;7.63;;;3.22;;
83707;SDS011;73692;49.562;11.144;2024-01-06T04:55:06;9.05;;;3.40;;
83707;SDS011;73692;49.562;11.144;2024-01-06T04:57:32;6.90;;;3.58;;
83707;SDS011;73692;49.562;11.144;2024-01-06T04:59:57;6.13;;;3.10;;
83707;SDS011;73692;49.562;11.144;2024-01-06T05:02:23;5.97;;;2.55;;
83707;SDS011;73692;49.562;11.144;2024-01-06T05:04:48;5.55;;;3.00;;
83707;SDS011;73692;49.562;11.144;2024-01-06T05:07:13;5.07;;;2.67;;
83707;SDS011;73692;49.562;11.144;2024-01-06T05:09:39;5.90;;;2.83;;
83707;SDS011;73692;49.562;11.144;2024-01-06T05:12:04;4.53;;;2.60;;
83707;SDS011;73692;49.562;11.144;2024-01-06T05:14:30;6.07;;;2.83;;
83707;SDS011;73692;49.562;11.144;2024-01-06T05:16:55;6.90;;;3.17;;
83707;SDS011;73692;49.562;11.144;2024-01-06T05:19:20;5.57;;;2.90;;
83707;SDS011;73692;49.562;11.144;2024-01-06T05:21:48;6.13;;;3.30;;
83707;SDS011;73692;49.562;11.144;2024-01-06T05:24:14;7.90;;;3.85;;
83707;SDS011;73692;49.562;11.144;2024-01-06T05:26:39;8.18;;;3.85;;
83707;SDS011;73692;49.562;11.144;2024-01-06T05:29:05;8.13;;;3.92;;
83707;SDS011;73692;49.562;11.144;2024-01-06T05:31:30;8.70;;;4.65;;
83707;SDS011;73692;49.562;11.144;2024-01-06T05:33:55;6.83;;;3.70;;
83707;SDS011;73692;49.562;11.144;2024-01-06T05:36:20;8.23;;;3.60;;
83707;SDS011;73692;49.562;11.144;2024-01-06T05:38:46;9.80;;;4.70;;
83707;SDS011;73692;49.562;11.144;2024-01-06T05:41:11;8.68;;;4.68;;
83707;SDS011;73692;49.562;11.144;2024-01-06T05:43:36;9.53;;;5.20;;
83707;SDS011;73692;49.562;11.144;2024-01-06T05:46:02;9.45;;;4.97;;
83707;SDS011;73692;49.562;11.144;2024-01-06T05:48:27;8.02;;;4.75;;
83707;SDS011;73692;49.562;11.144;2024-01-06T05:50:52;7.60;;;4.07;;
83707;SDS011;73692;49.562;11.144;2024-01-06T05:53:18;10.18;;;4.20;;
83707;SDS011;73692;49.562;11.144;2024-01-06T05:55:43;7.03;;;3.50;;
83707;SDS011;73692;49.562;11.144;2024-01-06T05:58:09;8.85;;;4.00;;
83707;SDS011;73692;49.562;11.144;2024-01-06T06:00:34;7.88;;;4.00;;
83707;SDS011;73692;49.562;11.144;2024-01-06T06:02:59;7.40;;;3.40;;
83707;SDS011;73692;49.562;11.144;2024-01-06T06:05:25;8.47;;;3.77;;
83707;SDS011;73692;49.562;11.144;2024-01-06T06:10:16;5.53;;;3.47;;
83707;SDS011;73692;49.562;11.144;2024-01-06T06:12:43;7.32;;;3.65;;
83707;SDS011;73692;49.562;11.144;2024-01-06T06:15:08;7.20;;;4.28;;
83707;SDS011;73692;49.562;11.144;2024-01-06T06:17:34;8.75;;;4.43;;
83707;SDS011;73692;49.562;11.144;2024-01-06T06:20:00;9.18;;;4.25;;
83707;SDS011;73692;49.562;11.144;2024-01-06T06:22:25;8.80;;;4.40;;
83707;SDS011;73692;49.562;11.144;2024-01-06T06:24:57;9.70;;;5.05;;
83707;SDS011;73692;49.562;11.144;2024-01-06T06:27:23;8.25;;;5.20;;
83707;SDS011;73692;49.562;11.144;2024-01-06T06:29:49;9.73;;;5.68;;
83707;SDS011;73692;49.562;11.144;2024-01-06T06:32:14;11.10;;;5.35;;
83707;SDS011;73692;49.562;11.144;2024-01-06T06:34:40;11.05;;;4.53;;
83707;SDS011;73692;49.562;11.144;2024-01-06T06:37:05;7.77;;;3.73;;
83707;SDS011;73692;49.562;11.144;2024-01-06T06:39:30;8.13;;;3.35;;
83707;SDS011;73692;49.562;11.144;2024-01-06T06:41:56;6.82;;;2.88;;
83707;SDS011;73692;49.562;11.144;2024-01-06T06:44:22;6.32;;;3.28;;
83707;SDS011;73692;49.562;11.144;2024-01-06T06:46:48;5.25;;;3.10;;
83707;SDS011;73692;49.562;11.144;2024-01-06T06:49:13;6.53;;;2.53;;
83707;SDS011;73692;49.562;11.144;2024-01-06T06:51:39;5.93;;;2.47;;
83707;SDS011;73692;49.562;11.144;2024-01-06T06:54:11;7.25;;;2.78;;
83707;SDS011;73692;49.562;11.144;2024-01-06T06:56:36;4.65;;;2.33;;
83707;SDS011;73692;49.562;11.144;2024-01-06T06:59:01;4.78;;;2.30;;
83707;SDS011;73692;49.562;11.144;2024-01-06T07:01:27;4.78;;;2.75;;
83707;SDS011;73692;49.562;11.144;2024-01-06T07:03:52;4.38;;;2.75;;
83707;SDS011;73692;49.562;11.144;2024-01-06T07:06:18;4.45;;;2.13;;
83707;SDS011;73692;49.562;11.144;2024-01-06T07:08:44;3.90;;;2.35;;
83707;SDS011;73692;49.562;11.144;2024-01-06T07:11:09;9.18;;;2.75;;
83707;SDS011;73692;49.562;11.144;2024-01-06T07:13:36;8.90;;;3.45;;
83707;SDS011;73692;49.562;11.144;2024-01-06T07:16:02;4.13;;;2.22;;
83707;SDS011;73692;49.562;11.144;2024-01-06T07:18:27;7.25;;;2.70;;
83707;SDS011;73692;49.562;11.144;2024-01-06T07:20:52;6.80;;;2.73;;
83707;SDS011;73692;49.562;11.144;2024-01-06T07:23:17;6.30;;;2.40;;
83707;SDS011;73692;49.562;11.144;2024-01-06T07:25:43;4.53;;;2.22;;
83707;SDS011;73692;49.562;11.144;2024-01-06T07:28:08;4.45;;;2.50;;
83707;SDS011;73692;49.562;11.144;2024-01-06T07:30:34;6.15;;;2.60;;
83707;SDS011;73692;49.562;11.144;2024-01-06T07:32:59;6.10;;;2.65;;
83707;SDS011;73692;49.562;11.144;2024-01-06T07:35:25;6.93;;;2.63;;
83707;SDS011;73692;49.562;11.144;2024-01-06T07:37:50;6.72;;;2.65;;
83707;SDS011;73692;49.562;11.144;2024-01-06T07:40:16;4.40;;;2.65;;
83707;SDS011;73692;49.562;11.144;2024-01-06T07:42:42;5.28;;;3.10;;
83707;SDS011;73692;49.562;11.144;2024-01-06T07:47:33;7.68;;;2.72;;
83707;SDS011;73692;49.562;11.144;2024-01-06T07:49:59;4.23;;;2.57;;
83707;SDS011;73692;49.562;11.144;2024-01-06T07:52:24;4.55;;;2.97;;
83707;SDS011;73692;49.562;11.144;2024-01-06T07:54:49;5.63;;;3.23;;
83707;SDS011;73692;49.562;11.144;2024-01-06T07:57:15;7.15;;;3.30;;
83707;SDS011;73692;49.562;11.144;2024-01-06T07:59:40;8.20;;;3.95;;
83707;SDS011;73692;49.562;11.144;2024-01-06T08:02:06;7.38;;;3.67;;
83707;SDS011;73692;49.562;11.144;2024-01-06T08:04:32;7.28;;;3.70;;
83707;SDS011;73692;49.562;11.144;2024-01-06T08:06:57;8.18;;;4.07;;
83707;SDS011;73692;49.562;11.144;2024-01-06T08:09:22;7.28;;;3.65;;
83707;SDS011;73692;49.562;11.144;2024-01-06T08:11:48;7.40;;;3.63;;
83707;SDS011;73692;49.562;11.144;2024-01-06T08:14:14;4.78;;;3.08;;
83707;SDS011;73692;49.562;11.144;2024-01-06T08:16:39;6.40;;;2.90;;
83707;SDS011;73692;49.562;11.144;2024-01-06T08:19:04;8.77;;;3.38;;
83707;SDS011;73692;49.562;11.144;2024-01-06T08:21:30;7.13;;;3.10;;
83707;SDS011;73692;49.562;11.144;2024-01-06T08:23:55;5.80;;;2.92;;
83707;SDS011;73692;49.562;11.144;2024-01-06T08:26:21;6.68;;;3.05;;
83707;SDS011;73692;49.562;11.144;2024-01-06T08:28:46;4.97;;;2.80;;
83707;SDS011;73692;49.562;11.144;2024-01-06T08:31:11;5.65;;;2.65;;
83707;SDS011;73692;49.562;11.144;2024-01-06T08:33:37;6.82;;;2.95;;
83707;SDS011;73692;49.562;11.144;2024-01-06T08:36:02;6.65;;;2.70;;
83707;SDS011;73692;49.562;11.144;2024-01-06T08:38:28;8.27;;;2.83;;
83707;SDS011;73692;49.562;11.144;2024-01-06T08:40:53;6.95;;;2.92;;
83707;SDS011;73692;49.562;11.144;2024-01-06T08:43:18;9.00;;;2.92;;
83707;SDS011;73692;49.562;11.144;2024-01-06T08:45:44;7.65;;;3.30;;
83707;SDS011;73692;49.562;11.144;2024-01-06T08:48:09;6.85;;;3.08;;
83707;SDS011;73692;49.562;11.144;2024-01-06T08:50:36;6.25;;;3.00;;
83707;SDS011;73692;49.562;11.144;2024-01-06T08:53:02;5.57;;;2.67;;
83707;SDS011;73692;49.562;11.144;2024-01-06T08:55:27;5.25;;;2.90;;
83707;SDS011;73692;49.562;11.144;2024-01-06T08:57:52;5.87;;;2.90;;
83707;SDS011;73692;49.562;11.144;2024-01-06T09:00:18;7.78;;;3.53;;
83707;SDS011;73692;49.562;11.144;2024-01-06T09:02:43;5.22;;;2.97;;
83707;SDS011;73692;49.562;11.144;2024-01-06T09:05:08;9.83;;;2.63;;
83707;SDS011;73692;49.562;11.144;2024-01-06T09:07:34;7.50;;;4.60;;
83707;SDS011;73692;49.562;11.144;2024-01-06T09:09:59;13.27;;;4.53;;
83707;SDS011;73692;49.562;11.144;2024-01-06T09:12:24;7.30;;;3.10;;
83707;SDS011;73692;49.562;11.144;2024-01-06T09:14:50;9.93;;;4.80;;
83707;SDS011;73692;49.562;11.144;2024-01-06T09:17:15;37.35;;;19.65;;
83707;SDS011;73692;49.562;11.144;2024-01-06T09:19:41;13.43;;;8.57;;
83707;SDS011;73692;49.562;11.144;2024-01-06T09:22:06;8.23;;;4.78;;
83707;SDS011;73692;49.562;11.144;2024-01-06T09:24:32;9.23;;;3.58;;
83707;SDS011;73692;49.562;11.144;2024-01-06T09:26:58;8.23;;;4.00;;
83707;SDS011;73692;49.562;11.144;2024-01-06T09:29:23;8.77;;;3.88;;
83707;SDS011;73692;49.562;11.144;2024-01-06T09:31:49;11.00;;;4.13;;
83707;SDS011;73692;49.562;11.144;2024-01-06T09:34:14;12.20;;;4.53;;
83707;SDS011;73692;49.562;11.144;2024-01-06T09:36:39;9.60;;;4.72;;
83707;SDS011;73692;49.562;11.144;2024-01-06T09:39:05;6.78;;;3.90;;
83707;SDS011;73692;49.562;11.144;2024-01-06T09:41:31;8.60;;;4.63;;
83707;SDS011;73692;49.562;11.144;2024-01-06T09:43:57;5.97;;;3.67;;
83707;SDS011;73692;49.562;11.144;2024-01-06T09:46:25;7.60;;;4.40;;
83707;SDS011;73692;49.562;11.144;2024-01-06T09:48:57;9.43;;;4.85;;
83707;SDS011;73692;49.562;11.144;2024-01-06T09:51:23;10.50;;;4.70;;
83707;SDS011;73692;49.562;11.144;2024-01-06T09:53:51;6.95;;;4.57;;
83707;SDS011;73692;49.562;11.144;2024-01-06T09:58:46;8.90;;;4.38;;
83707;SDS011;73692;49.562;11.144;2024-01-06T10:01:12;12.50;;;4.95;;
83707;SDS011;73692;49.562;11.144;2024-01-06T10:03:39;8.13;;;4.45;;
83707;SDS011;73692;49.562;11.144;2024-01-06T10:06:04;10.68;;;5.10;;
83707;SDS011;73692;49.562;11.144;2024-01-06T10:08:30;7.53;;;4.30;;
83707;SDS011;73692;49.562;11.144;2024-01-06T10:10:58;7.45;;;4.03;;
83707;SDS011;73692;49.562;11.144;2024-01-06T10:13:24;9.65;;;4.57;;
83707;SDS011;73692;49.562;11.144;2024-01-06T10:15:50;8.18;;;4.28;;
83707;SDS011;73692;49.562;11.144;2024-01-06T10:18:15;6.93;;;3.72;;
83707;SDS011;73692;49.562;11.144;2024-01-06T10:20:40;10.60;;;4.28;;
83707;SDS011;73692;49.562;11.144;2024-01-06T10:23:06;8.50;;;4.63;;
83707;SDS011;73692;49.562;11.144;2024-01-06T10:25:31;7.25;;;3.97;;
83707;SDS011;73692;49.562;11.144;2024-01-06T10:27:57;10.25;;;4.65;;
83707;SDS011;73692;49.562;11.144;2024-01-06T10:30:22;10.17;;;4.33;;
83707;SDS011;73692;49.562;11.144;2024-01-06T10:32:49;9.70;;;3.95;;
83707;SDS011;73692;49.562;11.144;2024-01-06T10:35:15;8.20;;;4.18;;
83707;SDS011;73692;49.562;11.144;2024-01-06T10:37:41;7.10;;;3.83;;
83707;SDS011;73692;49.562;11.144;2024-01-06T10:40:16;11.23;;;4.55;;
83707;SDS011;73692;49.562;11.144;2024-01-06T10:42:42;7.35;;;4.60;;
83707;SDS011;73692;49.562;11.144;2024-01-06T10:47:37;10.85;;;4.65;;
83707;SDS011;73692;49.562;11.144;2024-01-06T10:50:03;7.03;;;4.43;;
83707;SDS011;73692;49.562;11.144;2024-01-06T10:54:55;9.00;;;4.18;;
83707;SDS011;73692;49.562;11.144;2024-01-06T10:57:20;9.20;;;4.25;;
83707;SDS011;73692;49.562;11.144;2024-01-06T10:59:47;6.60;;;4.20;;
83707;SDS011;73692;49.562;11.144;2024-01-06T11:02:14;8.73;;;4.85;;
83707;SDS011;73692;49.562;11.144;2024-01-06T11:04:41;7.20;;;4.00;;
83707;SDS011;73692;49.562;11.144;2024-01-06T11:07:08;9.57;;;5.03;;
83707;SDS011;73692;49.562;11.144;2024-01-06T11:09:33;10.65;;;4.22;;
83707;SDS011;73692;49.562;11.144;2024-01-06T11:12:00;9.00;;;4.65;;
83707;SDS011;73692;49.562;11.144;2024-01-06T11:14:26;9.93;;;4.97;;
83707;SDS011;73692;49.562;11.144;2024-01-06T11:16:56;7.00;;;4.72;;
83707;SDS011;73692;49.562;11.144;2024-01-06T11:24:56;9.85;;;4.57;;
83707;SDS011;73692;49.562;11.144;2024-01-06T11:27:28;6.93;;;3.83;;
83707;SDS011;73692;49.562;11.144;2024-01-06T11:29:56;9.73;;;4.43;;
83707;SDS011;73692;49.562;11.144;2024-01-06T11:32:27;8.48;;;4.15;;
83707;SDS011;73692;49.562;11.144;2024-01-06T11:34:55;6.95;;;3.85;;
83707;SDS011;73692;49.562;11.144;2024-01-06T11:37:34;7.28;;;4.03;;
83707;SDS011;73692;49.562;11.144;2024-01-06T11:42:46;9.30;;;4.32;;
83707;SDS011;73692;49.562;11.144;2024-01-06T11:45:31;9.15;;;4.50;;
83707;SDS011;73692;49.562;11.144;2024-01-06T11:48:01;9.35;;;4.43;;
83707;SDS011;73692;49.562;11.144;2024-01-06T11:50:28;9.68;;;4.03;;
83707;SDS011;73692;49.562;11.144;2024-01-06T11:52:55;7.30;;;4.35;;
83707;SDS011;73692;49.562;11.144;2024-01-06T11:55:20;10.27;;;5.03;;
83707;SDS011;73692;49.562;11.144;2024-01-06T11:57:46;10.20;;;4.15;;
83707;SDS011;73692;49.562;11.144;2024-01-06T12:00:12;6.90;;;4.25;;
83707;SDS011;73692;49.562;11.144;2024-01-06T12:02:41;7.72;;;4.00;;
83707;SDS011;73692;49.562;11.144;2024-01-06T12:05:11;9.50;;;4.00;;
83707;SDS011;73692;49.562;11.144;2024-01-06T12:10:05;6.82;;;3.53;;
83707;SDS011;73692;49.562;11.144;2024-01-06T12:12:32;8.32;;;3.72;;
83707;SDS011;73692;49.562;11.144;2024-01-06T12:14:58;6.97;;;3.40;;
83707;SDS011;73692;49.562;11.144;2024-01-06T12:17:23;6.70;;;3.50;;
83707;SDS011;73692;49.562;11.144;2024-01-06T12:19:54;8.38;;;3.40;;
83707;SDS011;73692;49.562;11.144;2024-01-06T12:24:44;5.63;;;2.83;;
83707;SDS011;73692;49.562;11.144;2024-01-06T12:29:38;5.78;;;3.33;;
83707;SDS011;73692;49.562;11.144;2024-01-06T12:32:05;7.55;;;3.83;;
83707;SDS011;73692;49.562;11.144;2024-01-06T12:34:30;7.15;;;3.78;;
83707;SDS011;73692;49.562;11.144;2024-01-06T12:36:56;9.40;;;3.80;;
83707;SDS011;73692;49.562;11.144;2024-01-06T12:39:21;7.95;;;3.67;;
83707;SDS011;73692;49.562;11.144;2024-01-06T12:41:48;7.55;;;4.10;;
83707;SDS011;73692;49.562;11.144;2024-01-06T12:46:38;6.13;;;3.33;;
83707;SDS011;73692;49.562;11.144;2024-01-06T12:49:04;6.22;;;3.47;;
83707;SDS011;73692;49.562;11.144;2024-01-06T12:53:54;8.87;;;3.80;;
83707;SDS011;73692;49.562;11.144;2024-01-06T12:56:19;6.13;;;4.17;;
83707;SDS011;73692;49.562;11.144;2024-01-06T12:58:45;7.82;;;3.45;;
83707;SDS011;73692;49.562;11.144;2024-01-06T13:03:36;8.73;;;3.50;;
83707;SDS011;73692;49.562;11.144;2024-01-06T13:06:01;7.95;;;4.22;;
83707;SDS011;73692;49.562;11.144;2024-01-06T13:08:27;7.05;;;4.30;;
83707;SDS011;73692;49.562;11.144;2024-01-06T13:10:53;6.18;;;3.88;;
83707;SDS011;73692;49.562;11.144;2024-01-06T13:15:44;5.57;;;3.40;;
83707;SDS011;73692;49.562;11.144;2024-01-06T13:18:11;6.75;;;3.90;;
83707;SDS011;73692;49.562;11.144;2024-01-06T13:20:37;7.63;;;4.50;;
83707;SDS011;73692;49.562;11.144;2024-01-06T13:23:05;6.38;;;4.03;;
83707;SDS011;73692;49.562;11.144;2024-01-06T13:25:31;9.88;;;4.63;;
83707;SDS011;73692;49.562;11.144;2024-01-06T13:27:57;7.60;;;4.63;;
83707;SDS011;73692;49.562;11.144;2024-01-06T13:30:22;9.13;;;4.87;;
83707;SDS011;73692;49.562;11.144;2024-01-06T13:32:47;9.85;;;5.70;;
83707;SDS011;73692;49.562;11.144;2024-01-06T13:35:15;7.55;;;4.90;;
83707;SDS011;73692;49.562;11.144;2024-01-06T13:37:40;7.40;;;5.05;;
83707;SDS011;73692;49.562;11.144;2024-01-06T13:40:07;9.20;;;5.50;;
83707;SDS011;73692;49.562;11.144;2024-01-06T13:42:33;9.85;;;4.88;;
83707;SDS011;73692;49.562;11.144;2024-01-06T13:44:59;8.00;;;4.90;;
83707;SDS011;73692;49.562;11.144;2024-01-06T13:47:28;9.35;;;4.97;;
83707;SDS011;73692;49.562;11.144;2024-01-06T13:49:53;11.15;;;5.85;;
83707;SDS011;73692;49.562;11.144;2024-01-06T13:52:21;6.55;;;4.50;;
83707;SDS011;73692;49.562;11.144;2024-01-06T13:54:47;7.82;;;5.05;;
83707;SDS011;73692;49.562;11.144;2024-01-06T13:57:12;7.18;;;4.90;;
83707;SDS011;73692;49.562;11.144;2024-01-06T13:59:37;7.35;;;4.90;;
83707;SDS011;73692;49.562;11.144;2024-01-06T14:02:07;8.50;;;4.68;;
83707;SDS011;73692;49.562;11.144;2024-01-06T14:04:32;8.45;;;5.25;;
83707;SDS011;73692;49.562;11.144;2024-01-06T14:06:58;11.52;;;5.72;;
83707;SDS011;73692;49.562;11.144;2024-01-06T14:09:23;7.97;;;4.93;;
83707;SDS011;73692;49.562;11.144;2024-01-06T14:11:48;10.70;;;4.97;;
83707;SDS011;73692;49.562;11.144;2024-01-06T14:14:14;11.52;;;5.80;;
83707;SDS011;73692;49.562;11.144;2024-01-06T14:16:39;8.25;;;4.95;;
83707;SDS011;73692;49.562;11.144;2024-01-06T14:19:04;9.27;;;4.82;;
83707;SDS011;73692;49.562;11.144;2024-01-06T14:21:30;9.18;;;5.00;;
83707;SDS011;73692;49.562;11.144;2024-01-06T14:23:55;7.67;;;4.57;;
83707;SDS011;73692;49.562;11.144;2024-01-06T14:26:20;10.00;;;4.37;;
83707;SDS011;73692;49.562;11.144;2024-01-06T14:28:46;10.50;;;4.65;;
83707;SDS011;73692;49.562;11.144;2024-01-06T14:31:14;6.82;;;4.07;;
83707;SDS011;73692;49.562;11.144;2024-01-06T14:33:39;9.43;;;4.87;;
83707;SDS011;73692;49.562;11.144;2024-01-06T14:36:05;8.83;;;4.67;;
83707;SDS011;73692;49.562;11.144;2024-01-06T14:38:31;6.35;;;4.30;;
83707;SDS011;73692;49.562;11.144;2024-01-06T14:40:57;8.53;;;4.37;;
83707;SDS011;73692;49.562;11.144;2024-01-06T14:43:22;8.23;;;4.60;;
83707;SDS011;73692;49.562;11.144;2024-01-06T14:45:47;10.80;;;4.93;;
83707;SDS011;73692;49.562;11.144;2024-01-06T14:48:13;10.80;;;4.47;;
83707;SDS011;73692;49.562;11.144;2024-01-06T14:50:38;6.68;;;4.43;;
83707;SDS011;73692;49.562;11.144;2024-01-06T14:55:29;9.37;;;4.90;;
83707;SDS011;73692;49.562;11.144;2024-01-06T14:57:54;9.00;;;4.70;;
83707;SDS011;73692;49.562;11.144;2024-01-06T15:00:19;10.43;;;4.60;;
83707;SDS011;73692;49.562;11.144;2024-01-06T15:02:45;7.78;;;4.47;;
83707;SDS011;73692;49.562;11.144;2024-01-06T15:05:14;8.07;;;4.38;;
83707;SDS011;73692;49.562;11.144;2024-01-06T15:07:40;7.70;;;4.28;;
83707;SDS011;73692;49.562;11.144;2024-01-06T15:10:06;10.40;;;5.35;;
83707;SDS011;73692;49.562;11.144;2024-01-06T15:12:33;7.07;;;4.50;;